sensor_id;sensor_type;location;lat;lon;timestamp;P1;durP1;ratioP1;P2;durP2;ratioP2
33475;SDS011;19814;48.224;11.422;2023-05-10T00:01:42;3.30;;;1.23;;
33475;SDS011;19814;48.224;11.422;2023-05-10T00:04:07;2.58;;;1.38;;
33475;SDS011;19814;48.224;11.422;2023-05-10T00:06:33;1.92;;;1.00;;
33475;SDS011;19814;48.224;11.422;2023-05-10T00:08:58;1.90;;;0.95;;
33475;SDS011;19814;48.224;11.422;2023-05-10T00:11:24;1.75;;;0.80;;
33475;SDS011;19814;48.224;11.422;2023-05-10T00:13:49;1.10;;;0.90;;
33475;SDS011;19814;48.224;11.422;2023-05-10T00:16:15;1.83;;;1.13;;
33475;SDS011;19814;48.224;11.422;2023-05-10T00:18:40;1.02;;;0.88;;
33475;SDS011;19814;48.224;11.422;2023-05-10T00:21:06;1.70;;;0.82;;
33475;SDS011;19814;48.224;11.422;2023-05-10T00:23:31;2.67;;;1.20;;
33475;SDS011;19814;48.224;11.422;2023-05-10T00:25:57;1.67;;;0.80;;
33475;SDS011;19814;48.224;11.422;2023-05-10T00:28:23;2.47;;;1.08;;
33475;SDS011;19814;48.224;11.422;2023-05-10T00:30:48;2.65;;;0.93;;
33475;SDS011;19814;48.224;11.422;2023-05-10T00:33:14;2.03;;;1.02;;
33475;SDS011;19814;48.224;11.422;2023-05-10T00:35:39;2.05;;;1.00;;
33475;SDS011;19814;48.224;11.422;2023-05-10T00:38:05;1.55;;;1.00;;
33475;SDS011;19814;48.224;11.422;2023-05-10T00:40:31;1.50;;;0.85;;
33475;SDS011;19814;48.224;11.422;2023-05-10T00:42:57;1.20;;;0.90;;
33475;SDS011;19814;48.224;11.422;2023-05-10T00:45:23;2.20;;;0.90;;
33475;SDS011;19814;48.224;11.422;2023-05-10T00:47:49;1.65;;;0.80;;
33475;SDS011;19814;48.224;11.422;2023-05-10T00:50:17;1.33;;;0.80;;
33475;SDS011;19814;48.224;11.422;2023-05-10T00:52:42;1.02;;;0.70;;
33475;SDS011;19814;48.224;11.422;2023-05-10T00:55:09;1.45;;;0.88;;
33475;SDS011;19814;48.224;11.422;2023-05-10T00:57:36;1.20;;;0.90;;
33475;SDS011;19814;48.224;11.422;2023-05-10T01:00:02;2.92;;;1.20;;
33475;SDS011;19814;48.224;11.422;2023-05-10T01:02:28;0.88;;;0.60;;
33475;SDS011;19814;48.224;11.422;2023-05-10T01:04:53;2.30;;;0.88;;
33475;SDS011;19814;48.224;11.422;2023-05-10T01:07:19;3.28;;;0.90;;
33475;SDS011;19814;48.224;11.422;2023-05-10T01:09:45;1.45;;;0.63;;
33475;SDS011;19814;48.224;11.422;2023-05-10T01:12:11;1.27;;;0.65;;
33475;SDS011;19814;48.224;11.422;2023-05-10T01:14:36;0.88;;;0.50;;
33475;SDS011;19814;48.224;11.422;2023-05-10T01:17:02;0.88;;;0.55;;
33475;SDS011;19814;48.224;11.422;2023-05-10T01:19:29;2.20;;;0.60;;
33475;SDS011;19814;48.224;11.422;2023-05-10T01:33:30;2.03;;;0.60;;
33475;SDS011;19814;48.224;11.422;2023-05-10T01:38:53;0.60;;;0.52;;
33475;SDS011;19814;48.224;11.422;2023-05-10T01:44:29;1.33;;;0.60;;
33475;SDS011;19814;48.224;11.422;2023-05-10T01:47:16;0.40;;;0.40;;
33475;SDS011;19814;48.224;11.422;2023-05-10T01:49:49;1.35;;;0.50;;
33475;SDS011;19814;48.224;11.422;2023-05-10T01:52:17;0.65;;;0.47;;
33475;SDS011;19814;48.224;11.422;2023-05-10T01:54:53;0.47;;;0.47;;
33475;SDS011;19814;48.224;11.422;2023-05-10T01:57:26;0.63;;;0.47;;
33475;SDS011;19814;48.224;11.422;2023-05-10T01:59:56;0.80;;;0.45;;
33475;SDS011;19814;48.224;11.422;2023-05-10T02:02:23;0.88;;;0.50;;
33475;SDS011;19814;48.224;11.422;2023-05-10T02:04:51;0.50;;;0.45;;
33475;SDS011;19814;48.224;11.422;2023-05-10T02:07:18;1.35;;;0.50;;
33475;SDS011;19814;48.224;11.422;2023-05-10T02:09:45;1.00;;;0.70;;
33475;SDS011;19814;48.224;11.422;2023-05-10T02:12:13;0.57;;;0.40;;
33475;SDS011;19814;48.224;11.422;2023-05-10T02:14:40;0.65;;;0.40;;
33475;SDS011;19814;48.224;11.422;2023-05-10T02:17:07;0.70;;;0.50;;
33475;SDS011;19814;48.224;11.422;2023-05-10T02:19:33;0.40;;;0.40;;
33475;SDS011;19814;48.224;11.422;2023-05-10T02:22:01;1.13;;;0.50;;
33475;SDS011;19814;48.224;11.422;2023-05-10T02:24:28;0.40;;;0.40;;
33475;SDS011;19814;48.224;11.422;2023-05-10T02:26:54;0.30;;;0.30;;
33475;SDS011;19814;48.224;11.422;2023-05-10T02:29:21;1.40;;;0.32;;
33475;SDS011;19814;48.224;11.422;2023-05-10T02:31:51;0.50;;;0.40;;
33475;SDS011;19814;48.224;11.422;2023-05-10T02:34:19;1.38;;;0.50;;
33475;SDS011;19814;48.224;11.422;2023-05-10T02:36:46;1.60;;;0.40;;
33475;SDS011;19814;48.224;11.422;2023-05-10T02:39:13;1.70;;;0.43;;
33475;SDS011;19814;48.224;11.422;2023-05-10T02:41:40;0.70;;;0.50;;
33475;SDS011;19814;48.224;11.422;2023-05-10T02:44:07;0.45;;;0.45;;
33475;SDS011;19814;48.224;11.422;2023-05-10T02:46:34;1.55;;;1.08;;
33475;SDS011;19814;48.224;11.422;2023-05-10T02:49:01;1.55;;;0.68;;
33475;SDS011;19814;48.224;11.422;2023-05-10T02:51:28;0.65;;;0.50;;
33475;SDS011;19814;48.224;11.422;2023-05-10T02:53:57;0.77;;;0.50;;
33475;SDS011;19814;48.224;11.422;2023-05-10T02:56:25;0.40;;;0.40;;
33475;SDS011;19814;48.224;11.422;2023-05-10T02:58:56;1.67;;;0.52;;
33475;SDS011;19814;48.224;11.422;2023-05-10T03:01:22;0.57;;;0.50;;
33475;SDS011;19814;48.224;11.422;2023-05-10T03:03:48;1.13;;;0.40;;
33475;SDS011;19814;48.224;11.422;2023-05-10T03:06:13;1.45;;;0.57;;
33475;SDS011;19814;48.224;11.422;2023-05-10T03:08:41;0.80;;;0.40;;
33475;SDS011;19814;48.224;11.422;2023-05-10T03:11:09;0.50;;;0.40;;
33475;SDS011;19814;48.224;11.422;2023-05-10T03:16:46;0.35;;;0.30;;
33475;SDS011;19814;48.224;11.422;2023-05-10T03:19:27;1.20;;;0.52;;
33475;SDS011;19814;48.224;11.422;2023-05-10T03:21:59;0.47;;;0.45;;
33475;SDS011;19814;48.224;11.422;2023-05-10T03:24:28;0.80;;;0.60;;
33475;SDS011;19814;48.224;11.422;2023-05-10T03:26:55;0.63;;;0.40;;
33475;SDS011;19814;48.224;11.422;2023-05-10T03:29:24;0.70;;;0.47;;
33475;SDS011;19814;48.224;11.422;2023-05-10T03:31:51;0.57;;;0.47;;
33475;SDS011;19814;48.224;11.422;2023-05-10T03:34:16;1.88;;;0.55;;
33475;SDS011;19814;48.224;11.422;2023-05-10T03:36:47;1.10;;;0.70;;
33475;SDS011;19814;48.224;11.422;2023-05-10T03:39:13;1.08;;;0.50;;
33475;SDS011;19814;48.224;11.422;2023-05-10T03:41:38;1.50;;;0.63;;
33475;SDS011;19814;48.224;11.422;2023-05-10T03:44:04;0.70;;;0.60;;
33475;SDS011;19814;48.224;11.422;2023-05-10T03:46:29;1.25;;;0.77;;
33475;SDS011;19814;48.224;11.422;2023-05-10T03:48:55;1.13;;;0.60;;
33475;SDS011;19814;48.224;11.422;2023-05-10T03:51:20;1.05;;;0.47;;
33475;SDS011;19814;48.224;11.422;2023-05-10T03:53:47;1.67;;;0.82;;
33475;SDS011;19814;48.224;11.422;2023-05-10T03:56:12;1.65;;;0.57;;
33475;SDS011;19814;48.224;11.422;2023-05-10T03:58:38;0.63;;;0.52;;
33475;SDS011;19814;48.224;11.422;2023-05-10T04:01:03;0.85;;;0.50;;
33475;SDS011;19814;48.224;11.422;2023-05-10T04:03:29;1.85;;;0.50;;
33475;SDS011;19814;48.224;11.422;2023-05-10T04:05:58;0.98;;;0.50;;
33475;SDS011;19814;48.224;11.422;2023-05-10T04:08:25;0.63;;;0.55;;
33475;SDS011;19814;48.224;11.422;2023-05-10T04:10:51;2.25;;;0.60;;
33475;SDS011;19814;48.224;11.422;2023-05-10T04:13:16;1.50;;;0.50;;
33475;SDS011;19814;48.224;11.422;2023-05-10T04:15:42;0.63;;;0.50;;
33475;SDS011;19814;48.224;11.422;2023-05-10T04:18:08;0.40;;;0.40;;
33475;SDS011;19814;48.224;11.422;2023-05-10T04:20:35;2.78;;;0.60;;
33475;SDS011;19814;48.224;11.422;2023-05-10T04:23:00;1.13;;;0.50;;
33475;SDS011;19814;48.224;11.422;2023-05-10T04:25:26;0.38;;;0.32;;
33475;SDS011;19814;48.224;11.422;2023-05-10T04:27:52;1.23;;;0.40;;
33475;SDS011;19814;48.224;11.422;2023-05-10T04:30:17;0.30;;;0.30;;
33475;SDS011;19814;48.224;11.422;2023-05-10T04:32:43;0.20;;;0.20;;
33475;SDS011;19814;48.224;11.422;2023-05-10T04:35:08;0.47;;;0.40;;
33475;SDS011;19814;48.224;11.422;2023-05-10T04:37:35;2.45;;;0.40;;
33475;SDS011;19814;48.224;11.422;2023-05-10T04:40:01;0.45;;;0.30;;
33475;SDS011;19814;48.224;11.422;2023-05-10T04:42:28;0.43;;;0.40;;
33475;SDS011;19814;48.224;11.422;2023-05-10T04:44:53;0.38;;;0.30;;
33475;SDS011;19814;48.224;11.422;2023-05-10T04:47:19;0.52;;;0.40;;
33475;SDS011;19814;48.224;11.422;2023-05-10T04:49:45;0.22;;;0.20;;
33475;SDS011;19814;48.224;11.422;2023-05-10T04:52:10;0.50;;;0.50;;
33475;SDS011;19814;48.224;11.422;2023-05-10T04:54:36;0.30;;;0.30;;
33475;SDS011;19814;48.224;11.422;2023-05-10T04:57:02;0.30;;;0.22;;
33475;SDS011;19814;48.224;11.422;2023-05-10T04:59:27;0.25;;;0.20;;
33475;SDS011;19814;48.224;11.422;2023-05-10T05:01:53;0.57;;;0.30;;
33475;SDS011;19814;48.224;11.422;2023-05-10T05:04:18;0.30;;;0.20;;
33475;SDS011;19814;48.224;11.422;2023-05-10T05:06:44;0.40;;;0.20;;
33475;SDS011;19814;48.224;11.422;2023-05-10T05:09:09;0.98;;;0.32;;
33475;SDS011;19814;48.224;11.422;2023-05-10T05:11:35;0.95;;;0.40;;
33475;SDS011;19814;48.224;11.422;2023-05-10T05:14:01;0.98;;;0.38;;
33475;SDS011;19814;48.224;11.422;2023-05-10T05:16:26;0.30;;;0.30;;
33475;SDS011;19814;48.224;11.422;2023-05-10T05:18:52;8.60;;;0.55;;
33475;SDS011;19814;48.224;11.422;2023-05-10T05:21:18;0.40;;;0.32;;
33475;SDS011;19814;48.224;11.422;2023-05-10T05:23:44;1.27;;;0.30;;
33475;SDS011;19814;48.224;11.422;2023-05-10T05:26:11;0.55;;;0.50;;
33475;SDS011;19814;48.224;11.422;2023-05-10T05:28:36;2.47;;;0.50;;
33475;SDS011;19814;48.224;11.422;2023-05-10T05:31:06;0.55;;;0.50;;
33475;SDS011;19814;48.224;11.422;2023-05-10T05:33:35;0.45;;;0.40;;
33475;SDS011;19814;48.224;11.422;2023-05-10T05:36:04;1.30;;;0.70;;
33475;SDS011;19814;48.224;11.422;2023-05-10T05:38:30;0.77;;;0.68;;
33475;SDS011;19814;48.224;11.422;2023-05-10T05:40:56;0.60;;;0.60;;
33475;SDS011;19814;48.224;11.422;2023-05-10T05:43:22;1.10;;;0.50;;
33475;SDS011;19814;48.224;11.422;2023-05-10T05:45:47;1.55;;;0.55;;
33475;SDS011;19814;48.224;11.422;2023-05-10T05:48:13;2.63;;;0.50;;
33475;SDS011;19814;48.224;11.422;2023-05-10T05:50:39;1.00;;;0.30;;
33475;SDS011;19814;48.224;11.422;2023-05-10T05:53:04;0.52;;;0.52;;
33475;SDS011;19814;48.224;11.422;2023-05-10T05:55:30;0.70;;;0.50;;
33475;SDS011;19814;48.224;11.422;2023-05-10T05:57:56;1.10;;;0.50;;
33475;SDS011;19814;48.224;11.422;2023-05-10T06:00:22;0.57;;;0.40;;
33475;SDS011;19814;48.224;11.422;2023-05-10T06:02:48;0.90;;;0.60;;
33475;SDS011;19814;48.224;11.422;2023-05-10T06:05:13;1.20;;;0.60;;
33475;SDS011;19814;48.224;11.422;2023-05-10T06:07:39;0.80;;;0.47;;
33475;SDS011;19814;48.224;11.422;2023-05-10T06:10:07;0.68;;;0.40;;
33475;SDS011;19814;48.224;11.422;2023-05-10T06:12:33;0.80;;;0.30;;
33475;SDS011;19814;48.224;11.422;2023-05-10T06:14:58;1.52;;;0.90;;
33475;SDS011;19814;48.224;11.422;2023-05-10T06:17:24;1.48;;;0.50;;
33475;SDS011;19814;48.224;11.422;2023-05-10T06:19:50;0.63;;;0.50;;
33475;SDS011;19814;48.224;11.422;2023-05-10T06:22:15;1.88;;;0.32;;
33475;SDS011;19814;48.224;11.422;2023-05-10T06:24:41;1.35;;;0.60;;
33475;SDS011;19814;48.224;11.422;2023-05-10T06:27:06;0.98;;;0.50;;
33475;SDS011;19814;48.224;11.422;2023-05-10T06:29:32;3.40;;;0.60;;
33475;SDS011;19814;48.224;11.422;2023-05-10T06:31:58;1.15;;;0.50;;
33475;SDS011;19814;48.224;11.422;2023-05-10T06:34:23;0.35;;;0.30;;
33475;SDS011;19814;48.224;11.422;2023-05-10T06:36:49;0.63;;;0.40;;
33475;SDS011;19814;48.224;11.422;2023-05-10T06:39:15;1.67;;;0.38;;
33475;SDS011;19814;48.224;11.422;2023-05-10T06:41:41;0.45;;;0.38;;
33475;SDS011;19814;48.224;11.422;2023-05-10T06:44:06;3.05;;;0.52;;
33475;SDS011;19814;48.224;11.422;2023-05-10T06:46:32;0.77;;;0.60;;
33475;SDS011;19814;48.224;11.422;2023-05-10T06:48:57;2.25;;;0.70;;
33475;SDS011;19814;48.224;11.422;2023-05-10T06:51:23;1.02;;;0.50;;
33475;SDS011;19814;48.224;11.422;2023-05-10T06:53:49;0.90;;;0.50;;
33475;SDS011;19814;48.224;11.422;2023-05-10T06:56:14;1.58;;;0.40;;
33475;SDS011;19814;48.224;11.422;2023-05-10T06:58:40;2.75;;;0.60;;
33475;SDS011;19814;48.224;11.422;2023-05-10T07:01:05;0.73;;;0.70;;
33475;SDS011;19814;48.224;11.422;2023-05-10T07:03:31;0.52;;;0.43;;
33475;SDS011;19814;48.224;11.422;2023-05-10T07:06:03;0.70;;;0.50;;
33475;SDS011;19814;48.224;11.422;2023-05-10T07:08:30;0.73;;;0.60;;
33475;SDS011;19814;48.224;11.422;2023-05-10T07:11:03;0.95;;;0.40;;
33475;SDS011;19814;48.224;11.422;2023-05-10T07:13:30;0.68;;;0.50;;
33475;SDS011;19814;48.224;11.422;2023-05-10T07:15:56;0.30;;;0.30;;
33475;SDS011;19814;48.224;11.422;2023-05-10T07:18:22;0.90;;;0.50;;
33475;SDS011;19814;48.224;11.422;2023-05-10T07:20:48;0.60;;;0.60;;
33475;SDS011;19814;48.224;11.422;2023-05-10T07:23:13;1.45;;;0.75;;
33475;SDS011;19814;48.224;11.422;2023-05-10T07:25:39;0.82;;;0.57;;
33475;SDS011;19814;48.224;11.422;2023-05-10T07:28:04;1.35;;;0.68;;
33475;SDS011;19814;48.224;11.422;2023-05-10T07:30:30;0.70;;;0.45;;
33475;SDS011;19814;48.224;11.422;2023-05-10T07:32:56;1.85;;;0.43;;
33475;SDS011;19814;48.224;11.422;2023-05-10T07:35:21;0.52;;;0.50;;
33475;SDS011;19814;48.224;11.422;2023-05-10T07:37:47;2.53;;;0.50;;
33475;SDS011;19814;48.224;11.422;2023-05-10T07:40:12;0.50;;;0.50;;
33475;SDS011;19814;48.224;11.422;2023-05-10T07:42:38;1.33;;;0.70;;
33475;SDS011;19814;48.224;11.422;2023-05-10T07:45:04;1.13;;;0.60;;
33475;SDS011;19814;48.224;11.422;2023-05-10T07:47:30;0.90;;;0.60;;
33475;SDS011;19814;48.224;11.422;2023-05-10T07:49:55;2.28;;;0.50;;
33475;SDS011;19814;48.224;11.422;2023-05-10T07:52:20;0.43;;;0.43;;
33475;SDS011;19814;48.224;11.422;2023-05-10T07:54:46;0.50;;;0.40;;
33475;SDS011;19814;48.224;11.422;2023-05-10T07:57:12;1.73;;;0.57;;
33475;SDS011;19814;48.224;11.422;2023-05-10T07:59:39;1.75;;;0.50;;
33475;SDS011;19814;48.224;11.422;2023-05-10T08:02:05;0.47;;;0.43;;
33475;SDS011;19814;48.224;11.422;2023-05-10T08:04:31;0.63;;;0.50;;
33475;SDS011;19814;48.224;11.422;2023-05-10T08:06:56;0.40;;;0.40;;
33475;SDS011;19814;48.224;11.422;2023-05-10T08:09:22;1.77;;;0.75;;
33475;SDS011;19814;48.224;11.422;2023-05-10T08:11:48;1.13;;;0.57;;
33475;SDS011;19814;48.224;11.422;2023-05-10T08:14:15;0.82;;;0.40;;
33475;SDS011;19814;48.224;11.422;2023-05-10T08:16:40;0.50;;;0.45;;
33475;SDS011;19814;48.224;11.422;2023-05-10T08:19:06;0.35;;;0.35;;
33475;SDS011;19814;48.224;11.422;2023-05-10T08:21:31;1.17;;;0.50;;
33475;SDS011;19814;48.224;11.422;2023-05-10T08:23:57;0.60;;;0.40;;
33475;SDS011;19814;48.224;11.422;2023-05-10T08:26:22;0.52;;;0.40;;
33475;SDS011;19814;48.224;11.422;2023-05-10T08:28:48;1.55;;;0.57;;
33475;SDS011;19814;48.224;11.422;2023-05-10T08:31:14;0.57;;;0.40;;
33475;SDS011;19814;48.224;11.422;2023-05-10T08:33:40;1.48;;;0.40;;
33475;SDS011;19814;48.224;11.422;2023-05-10T08:36:06;1.98;;;0.80;;
33475;SDS011;19814;48.224;11.422;2023-05-10T08:38:31;2.05;;;0.40;;
33475;SDS011;19814;48.224;11.422;2023-05-10T08:40:57;0.60;;;0.40;;
33475;SDS011;19814;48.224;11.422;2023-05-10T08:43:25;0.60;;;0.50;;
33475;SDS011;19814;48.224;11.422;2023-05-10T08:45:53;3.55;;;0.52;;
33475;SDS011;19814;48.224;11.422;2023-05-10T08:48:20;0.73;;;0.40;;
33475;SDS011;19814;48.224;11.422;2023-05-10T08:50:49;0.40;;;0.40;;
33475;SDS011;19814;48.224;11.422;2023-05-10T08:53:19;2.42;;;0.47;;
33475;SDS011;19814;48.224;11.422;2023-05-10T08:55:45;0.55;;;0.40;;
33475;SDS011;19814;48.224;11.422;2023-05-10T08:58:11;0.55;;;0.32;;
33475;SDS011;19814;48.224;11.422;2023-05-10T09:00:37;0.90;;;0.38;;
33475;SDS011;19814;48.224;11.422;2023-05-10T09:03:03;1.17;;;0.50;;
33475;SDS011;19814;48.224;11.422;2023-05-10T09:05:30;0.68;;;0.20;;
33475;SDS011;19814;48.224;11.422;2023-05-10T09:07:55;1.13;;;0.40;;
33475;SDS011;19814;48.224;11.422;2023-05-10T09:10:21;0.22;;;0.20;;
33475;SDS011;19814;48.224;11.422;2023-05-10T09:12:50;1.03;;;0.40;;
33475;SDS011;19814;48.224;11.422;2023-05-10T09:15:16;0.82;;;0.45;;
33475;SDS011;19814;48.224;11.422;2023-05-10T09:17:44;0.90;;;0.30;;
33475;SDS011;19814;48.224;11.422;2023-05-10T09:20:10;2.22;;;0.50;;
33475;SDS011;19814;48.224;11.422;2023-05-10T09:22:35;0.50;;;0.35;;
33475;SDS011;19814;48.224;11.422;2023-05-10T09:27:34;1.30;;;0.30;;
33475;SDS011;19814;48.224;11.422;2023-05-10T09:30:01;0.57;;;0.20;;
33475;SDS011;19814;48.224;11.422;2023-05-10T09:32:37;1.55;;;0.50;;
33475;SDS011;19814;48.224;11.422;2023-05-10T09:35:07;0.40;;;0.40;;
33475;SDS011;19814;48.224;11.422;2023-05-10T09:37:43;0.75;;;0.30;;
33475;SDS011;19814;48.224;11.422;2023-05-10T09:40:14;0.98;;;0.43;;
33475;SDS011;19814;48.224;11.422;2023-05-10T09:42:51;2.47;;;0.45;;
33475;SDS011;19814;48.224;11.422;2023-05-10T09:45:24;0.93;;;0.50;;
33475;SDS011;19814;48.224;11.422;2023-05-10T09:47:50;0.90;;;0.40;;
33475;SDS011;19814;48.224;11.422;2023-05-10T09:50:16;1.48;;;0.52;;
33475;SDS011;19814;48.224;11.422;2023-05-10T09:52:51;0.50;;;0.32;;
33475;SDS011;19814;48.224;11.422;2023-05-10T09:55:40;0.55;;;0.32;;
33475;SDS011;19814;48.224;11.422;2023-05-10T09:58:09;0.93;;;0.50;;
33475;SDS011;19814;48.224;11.422;2023-05-10T10:00:45;0.47;;;0.43;;
33475;SDS011;19814;48.224;11.422;2023-05-10T10:03:13;1.05;;;0.40;;
33475;SDS011;19814;48.224;11.422;2023-05-10T10:05:40;1.50;;;0.45;;
33475;SDS011;19814;48.224;11.422;2023-05-10T10:08:09;0.82;;;0.40;;
33475;SDS011;19814;48.224;11.422;2023-05-10T10:10:36;2.38;;;0.50;;
33475;SDS011;19814;48.224;11.422;2023-05-10T10:13:03;1.05;;;0.45;;
33475;SDS011;19814;48.224;11.422;2023-05-10T10:15:29;0.90;;;0.50;;
33475;SDS011;19814;48.224;11.422;2023-05-10T10:17:55;1.90;;;0.70;;
33475;SDS011;19814;48.224;11.422;2023-05-10T10:20:21;0.93;;;0.50;;
33475;SDS011;19814;48.224;11.422;2023-05-10T10:22:47;2.25;;;0.47;;
33475;SDS011;19814;48.224;11.422;2023-05-10T10:25:14;2.17;;;0.60;;
33475;SDS011;19814;48.224;11.422;2023-05-10T10:35:33;3.80;;;0.90;;
33475;SDS011;19814;48.224;11.422;2023-05-10T10:37:59;1.75;;;0.40;;
33475;SDS011;19814;48.224;11.422;2023-05-10T10:40:30;0.70;;;0.32;;
33475;SDS011;19814;48.224;11.422;2023-05-10T10:42:56;0.98;;;0.60;;
33475;SDS011;19814;48.224;11.422;2023-05-10T10:45:26;0.50;;;0.40;;
33475;SDS011;19814;48.224;11.422;2023-05-10T10:50:47;0.77;;;0.30;;
33475;SDS011;19814;48.224;11.422;2023-05-10T10:53:12;2.22;;;0.40;;
33475;SDS011;19814;48.224;11.422;2023-05-10T10:55:47;0.77;;;0.50;;
33475;SDS011;19814;48.224;11.422;2023-05-10T10:58:28;0.63;;;0.40;;
33475;SDS011;19814;48.224;11.422;2023-05-10T11:01:09;0.40;;;0.30;;
33475;SDS011;19814;48.224;11.422;2023-05-10T11:03:54;2.05;;;0.70;;
33475;SDS011;19814;48.224;11.422;2023-05-10T11:08:56;1.88;;;0.70;;
33475;SDS011;19814;48.224;11.422;2023-05-10T11:11:22;4.28;;;0.98;;
33475;SDS011;19814;48.224;11.422;2023-05-10T11:13:48;2.10;;;0.73;;
33475;SDS011;19814;48.224;11.422;2023-05-10T11:16:23;4.78;;;1.15;;
33475;SDS011;19814;48.224;11.422;2023-05-10T11:19:09;1.58;;;0.95;;
33475;SDS011;19814;48.224;11.422;2023-05-10T11:24:14;2.42;;;1.02;;
33475;SDS011;19814;48.224;11.422;2023-05-10T11:26:42;4.32;;;1.45;;
33475;SDS011;19814;48.224;11.422;2023-05-10T11:29:07;3.10;;;1.60;;
33475;SDS011;19814;48.224;11.422;2023-05-10T11:31:33;2.00;;;1.15;;
33475;SDS011;19814;48.224;11.422;2023-05-10T11:34:00;2.88;;;1.50;;
33475;SDS011;19814;48.224;11.422;2023-05-10T11:36:34;1.90;;;1.20;;
33475;SDS011;19814;48.224;11.422;2023-05-10T11:39:01;3.33;;;0.80;;
33475;SDS011;19814;48.224;11.422;2023-05-10T11:41:28;3.80;;;1.08;;
33475;SDS011;19814;48.224;11.422;2023-05-10T11:43:55;1.25;;;0.80;;
33475;SDS011;19814;48.224;11.422;2023-05-10T11:46:24;0.90;;;0.70;;
33475;SDS011;19814;48.224;11.422;2023-05-10T11:48:52;2.38;;;0.90;;
33475;SDS011;19814;48.224;11.422;2023-05-10T11:51:22;1.67;;;0.80;;
33475;SDS011;19814;48.224;11.422;2023-05-10T11:53:49;1.17;;;0.77;;
33475;SDS011;19814;48.224;11.422;2023-05-10T11:56:17;2.22;;;0.90;;
33475;SDS011;19814;48.224;11.422;2023-05-10T11:58:42;1.77;;;0.80;;
33475;SDS011;19814;48.224;11.422;2023-05-10T12:01:08;3.42;;;0.90;;
33475;SDS011;19814;48.224;11.422;2023-05-10T12:03:35;2.40;;;0.80;;
33475;SDS011;19814;48.224;11.422;2023-05-10T12:06:01;2.10;;;0.80;;
33475;SDS011;19814;48.224;11.422;2023-05-10T12:08:28;4.55;;;1.45;;
33475;SDS011;19814;48.224;11.422;2023-05-10T12:11:05;1.48;;;0.70;;
33475;SDS011;19814;48.224;11.422;2023-05-10T12:13:32;1.55;;;1.00;;
33475;SDS011;19814;48.224;11.422;2023-05-10T12:16:12;2.23;;;1.03;;
33475;SDS011;19814;48.224;11.422;2023-05-10T12:18:38;1.58;;;0.65;;
33475;SDS011;19814;48.224;11.422;2023-05-10T12:21:05;1.60;;;0.68;;
33475;SDS011;19814;48.224;11.422;2023-05-10T12:23:31;0.57;;;0.35;;
33475;SDS011;19814;48.224;11.422;2023-05-10T12:26:01;1.55;;;0.52;;
33475;SDS011;19814;48.224;11.422;2023-05-10T12:28:29;0.50;;;0.35;;
33475;SDS011;19814;48.224;11.422;2023-05-10T12:30:57;1.65;;;0.30;;
33475;SDS011;19814;48.224;11.422;2023-05-10T12:33:23;1.40;;;0.28;;
33475;SDS011;19814;48.224;11.422;2023-05-10T12:35:50;0.32;;;0.30;;
33475;SDS011;19814;48.224;11.422;2023-05-10T12:38:27;0.73;;;0.40;;
33475;SDS011;19814;48.224;11.422;2023-05-10T12:40:54;0.40;;;0.40;;
33475;SDS011;19814;48.224;11.422;2023-05-10T12:43:21;0.50;;;0.40;;
33475;SDS011;19814;48.224;11.422;2023-05-10T12:45:46;1.95;;;0.65;;
33475;SDS011;19814;48.224;11.422;2023-05-10T12:48:13;0.55;;;0.45;;
33475;SDS011;19814;48.224;11.422;2023-05-10T12:50:42;2.72;;;0.73;;
33475;SDS011;19814;48.224;11.422;2023-05-10T12:53:07;1.00;;;0.65;;
33475;SDS011;19814;48.224;11.422;2023-05-10T12:55:33;1.77;;;0.60;;
33475;SDS011;19814;48.224;11.422;2023-05-10T12:57:59;2.00;;;0.70;;
33475;SDS011;19814;48.224;11.422;2023-05-10T13:00:24;1.77;;;0.50;;
33475;SDS011;19814;48.224;11.422;2023-05-10T13:02:50;1.70;;;0.60;;
33475;SDS011;19814;48.224;11.422;2023-05-10T13:05:15;1.13;;;0.60;;
33475;SDS011;19814;48.224;11.422;2023-05-10T13:07:41;0.70;;;0.40;;
33475;SDS011;19814;48.224;11.422;2023-05-10T13:10:08;0.95;;;0.60;;
33475;SDS011;19814;48.224;11.422;2023-05-10T13:12:34;0.95;;;0.50;;
33475;SDS011;19814;48.224;11.422;2023-05-10T13:15:00;0.50;;;0.40;;
33475;SDS011;19814;48.224;11.422;2023-05-10T13:17:26;0.95;;;0.60;;
33475;SDS011;19814;48.224;11.422;2023-05-10T13:19:51;0.68;;;0.40;;
33475;SDS011;19814;48.224;11.422;2023-05-10T13:22:17;1.85;;;0.60;;
33475;SDS011;19814;48.224;11.422;2023-05-10T13:24:42;0.68;;;0.50;;
33475;SDS011;19814;48.224;11.422;2023-05-10T13:27:08;1.05;;;0.60;;
33475;SDS011;19814;48.224;11.422;2023-05-10T13:29:33;0.90;;;0.50;;
33475;SDS011;19814;48.224;11.422;2023-05-10T13:31:59;1.00;;;0.68;;
33475;SDS011;19814;48.224;11.422;2023-05-10T13:34:24;0.80;;;0.65;;
33475;SDS011;19814;48.224;11.422;2023-05-10T13:36:50;2.35;;;0.70;;
33475;SDS011;19814;48.224;11.422;2023-05-10T13:39:16;2.63;;;0.90;;
33475;SDS011;19814;48.224;11.422;2023-05-10T13:41:41;2.45;;;0.70;;
33475;SDS011;19814;48.224;11.422;2023-05-10T13:44:07;1.70;;;0.88;;
33475;SDS011;19814;48.224;11.422;2023-05-10T13:46:33;1.23;;;0.70;;
33475;SDS011;19814;48.224;11.422;2023-05-10T13:48:58;1.42;;;0.75;;
33475;SDS011;19814;48.224;11.422;2023-05-10T13:51:24;2.60;;;0.98;;
33475;SDS011;19814;48.224;11.422;2023-05-10T13:53:49;2.22;;;1.05;;
33475;SDS011;19814;48.224;11.422;2023-05-10T13:56:15;2.17;;;0.90;;
33475;SDS011;19814;48.224;11.422;2023-05-10T13:58:40;1.77;;;1.00;;
33475;SDS011;19814;48.224;11.422;2023-05-10T14:01:06;2.17;;;0.90;;
33475;SDS011;19814;48.224;11.422;2023-05-10T14:03:32;1.95;;;1.08;;
33475;SDS011;19814;48.224;11.422;2023-05-10T14:05:57;3.72;;;0.90;;
33475;SDS011;19814;48.224;11.422;2023-05-10T14:08:23;2.50;;;0.90;;
33475;SDS011;19814;48.224;11.422;2023-05-10T14:10:48;1.38;;;0.75;;
33475;SDS011;19814;48.224;11.422;2023-05-10T14:13:15;3.05;;;0.90;;
33475;SDS011;19814;48.224;11.422;2023-05-10T14:15:41;1.20;;;0.70;;
33475;SDS011;19814;48.224;11.422;2023-05-10T14:18:06;0.70;;;0.70;;
33475;SDS011;19814;48.224;11.422;2023-05-10T14:20:32;2.65;;;0.80;;
33475;SDS011;19814;48.224;11.422;2023-05-10T14:22:58;1.75;;;0.80;;
33475;SDS011;19814;48.224;11.422;2023-05-10T14:25:24;2.03;;;0.80;;
33475;SDS011;19814;48.224;11.422;2023-05-10T14:27:50;2.03;;;0.80;;
33475;SDS011;19814;48.224;11.422;2023-05-10T14:30:16;1.10;;;0.73;;
33475;SDS011;19814;48.224;11.422;2023-05-10T14:32:41;2.03;;;0.82;;
33475;SDS011;19814;48.224;11.422;2023-05-10T14:35:07;2.13;;;0.60;;
33475;SDS011;19814;48.224;11.422;2023-05-10T14:37:33;1.33;;;0.68;;
33475;SDS011;19814;48.224;11.422;2023-05-10T14:39:59;2.55;;;0.65;;
33475;SDS011;19814;48.224;11.422;2023-05-10T14:42:25;1.23;;;0.57;;
33475;SDS011;19814;48.224;11.422;2023-05-10T14:44:51;1.25;;;0.65;;
33475;SDS011;19814;48.224;11.422;2023-05-10T14:47:16;1.15;;;0.68;;
33475;SDS011;19814;48.224;11.422;2023-05-10T14:49:42;1.35;;;0.63;;
33475;SDS011;19814;48.224;11.422;2023-05-10T14:52:08;1.08;;;0.80;;
33475;SDS011;19814;48.224;11.422;2023-05-10T14:54:34;2.50;;;0.80;;
33475;SDS011;19814;48.224;11.422;2023-05-10T14:56:59;1.08;;;0.75;;
33475;SDS011;19814;48.224;11.422;2023-05-10T14:59:25;0.75;;;0.60;;
33475;SDS011;19814;48.224;11.422;2023-05-10T15:01:51;1.13;;;0.75;;
33475;SDS011;19814;48.224;11.422;2023-05-10T15:04:16;2.03;;;1.00;;
33475;SDS011;19814;48.224;11.422;2023-05-10T15:06:42;1.02;;;0.60;;
33475;SDS011;19814;48.224;11.422;2023-05-10T15:09:07;2.10;;;0.80;;
33475;SDS011;19814;48.224;11.422;2023-05-10T15:11:33;4.05;;;1.00;;